Time;durP1;ratioP1;P1;durP2;ratioP2;P2;SDS_P1;SDS_P2;PMS_P1;PMS_P2;Temp;Humidity;BMP_temperature;BMP_pressure;BME280_temperature;BME280_humidity;BME280_pressure;Samples;Min_cycle;Max_cycle;Signal;HPM_P1;HPM_P2
2022/07/14 00:00:00;;;;;;;1999.90;999.90;;;;;;;19.12;100.00;99546.41;5047384;28;20053;-56
2022/07/14 00:03:01;;;;;;;1999.90;999.90;;;;;;;19.15;100.00;99546.22;5047617;28;20076;-56
2022/07/14 00:05:46;;;;;;;1999.90;999.90;;;;;;;19.09;100.00;99543.94;5046978;28;20045;-56
2022/07/14 00:08:30;;;;;;;1999.90;999.90;;;;;;;19.14;100.00;99546.31;5048644;28;20384;-55
2022/07/14 00:11:14;;;;;;;1999.90;999.90;;;;;;;19.16;100.00;99549.72;5046309;28;20044;-56
2022/07/14 00:13:59;;;;;;;1999.90;999.90;;;;;;;19.03;100.00;99533.72;5046550;28;20132;-55
2022/07/14 00:16:44;;;;;;;1999.90;999.90;;;;;;;19.10;100.00;99542.16;5048012;28;20048;-55
2022/07/14 00:19:28;;;;;;;1999.90;999.90;;;;;;;19.15;100.00;99546.22;5043670;28;20056;-56
2022/07/14 00:22:13;;;;;;;1999.90;999.90;;;;;;;19.14;100.00;99552.47;5046096;28;20037;-56
2022/07/14 00:24:57;;;;;;;1999.90;999.90;;;;;;;18.98;100.00;99540.28;5044919;28;20067;-56
2022/07/14 00:27:43;;;;;;;1999.90;999.90;;;;;;;19.13;100.00;99548.09;5045498;28;20428;-56
2022/07/14 00:30:27;;;;;;;1999.90;999.90;;;;;;;19.04;100.00;99551.34;5043137;28;20077;-55
2022/07/14 00:33:12;;;;;;;1999.90;999.90;;;;;;;18.98;100.00;99546.47;5046910;28;20036;-55
2022/07/14 00:35:56;;;;;;;1999.90;999.90;;;;;;;19.00;100.00;99541.03;5043177;28;20079;-55
2022/07/14 00:38:42;;;;;;;1999.90;999.90;;;;;;;18.95;100.00;99549.31;5045732;28;20041;-55
2022/07/14 00:41:28;;;;;;;1999.90;999.90;;;;;;;18.94;100.00;99549.38;5043911;28;20053;-55
2022/07/14 00:44:12;;;;;;;1999.90;999.90;;;;;;;18.90;100.00;99546.06;5048996;28;20095;-55
2022/07/14 00:46:58;;;;;;;1999.90;999.90;;;;;;;18.83;100.00;99547.41;5047336;28;20044;-56
2022/07/14 00:49:43;;;;;;;1999.90;999.90;;;;;;;18.69;100.00;99546.47;5047943;28;20099;-56
2022/07/14 00:52:29;;;;;;;1999.90;999.90;;;;;;;18.55;100.00;99546.44;5047532;28;20045;-55
2022/07/14 00:55:15;;;;;;;1999.90;999.90;;;;;;;18.57;100.00;99544.56;5042117;28;20041;-56
2022/07/14 00:58:00;;;;;;;1999.90;999.90;;;;;;;18.62;100.00;99539.84;5043510;28;20727;-55
2022/07/14 01:00:45;;;;;;;1999.90;999.90;;;;;;;18.48;100.00;99549.59;5042889;28;20041;-55
2022/07/14 01:03:30;;;;;;;1999.90;999.90;;;;;;;18.43;100.00;99539.28;5042036;28;20045;-55
2022/07/14 01:06:14;;;;;;;1999.90;999.90;;;;;;;18.32;100.00;99531.97;5042645;28;20045;-55
2022/07/14 01:08:59;;;;;;;1999.90;999.90;;;;;;;18.27;100.00;99520.81;5044626;28;20078;-55
2022/07/14 01:11:46;;;;;;;1999.90;999.90;;;;;;;18.18;100.00;99530.16;5042312;28;20048;-56
2022/07/14 01:14:30;;;;;;;1999.90;999.90;;;;;;;18.18;100.00;99522.22;5042593;28;20112;-55
2022/07/14 01:17:15;;;;;;;1999.90;999.90;;;;;;;18.09;100.00;99521.91;5043953;28;20037;-56
2022/07/14 01:19:59;;;;;;;1999.90;999.90;;;;;;;18.12;100.00;99516.44;5041452;28;20392;-55
2022/07/14 01:22:48;;;;;;;1999.90;999.90;;;;;;;18.00;100.00;99510.06;5041801;28;20045;-56
2022/07/14 01:25:33;;;;;;;1999.90;999.90;;;;;;;18.03;100.00;99511.69;5044802;28;20407;-55
2022/07/14 01:28:17;;;;;;;1999.90;999.90;;;;;;;17.98;100.00;99522.56;5043570;28;20054;-55
2022/07/14 01:31:01;;;;;;;1999.90;999.90;;;;;;;17.90;100.00;99520.34;5045172;28;20044;-55
2022/07/14 01:33:47;;;;;;;1999.90;999.90;;;;;;;17.84;100.00;99517.22;5042320;28;20439;-55
2022/07/14 01:36:31;;;;;;;1999.90;999.90;;;;;;;17.75;100.00;99519.47;5042691;28;20056;-56
2022/07/14 01:39:15;;;;;;;1999.90;999.90;;;;;;;17.74;100.00;99511.59;5041832;28;20545;-55
2022/07/14 01:42:01;;;;;;;1999.90;999.90;;;;;;;17.65;100.00;99523.59;5039758;28;20048;-55
2022/07/14 01:44:46;;;;;;;1999.90;999.90;;;;;;;17.65;100.00;99526.25;5043244;28;20484;-55
2022/07/14 01:47:31;;;;;;;1999.90;999.90;;;;;;;17.67;100.00;99529.63;5043928;28;20139;-55
2022/07/14 01:50:16;;;;;;;1999.90;999.90;;;;;;;17.58;100.00;99527.56;5040195;28;20052;-55
2022/07/14 01:53:02;;;;;;;1999.90;999.90;;;;;;;17.59;100.00;99526.59;5044050;28;20041;-55
2022/07/14 01:55:47;;;;;;;1999.90;999.90;;;;;;;17.38;100.00;99515.44;5045135;28;20052;-55
2022/07/14 01:58:31;;;;;;;1999.90;999.90;;;;;;;17.38;100.00;99525.19;5043823;28;20136;-55
2022/07/14 02:04:20;;;;;;;1999.90;999.90;;;;;;;17.16;100.00;99534.38;5055133;28;20067;-55
2022/07/14 02:07:05;;;;;;;1999.90;999.90;;;;;;;17.17;100.00;99528.13;5045515;28;20037;-55
2022/07/14 02:13:10;;;;;;;1999.90;999.90;;;;;;;17.11;100.00;99528.47;5043562;28;20418;-55
2022/07/14 02:15:55;;;;;;;1999.90;999.90;;;;;;;17.13;100.00;99536.34;5043945;28;20037;-55
2022/07/14 02:18:40;;;;;;;1999.90;999.90;;;;;;;17.00;100.00;99537.00;5042446;28;20407;-55
2022/07/14 02:21:24;;;;;;;1999.90;999.90;;;;;;;16.86;100.00;99523.69;5044666;28;20610;-55
2022/07/14 02:24:10;;;;;;;1999.90;999.90;;;;;;;16.69;100.00;99521.94;5044266;28;20041;-55
2022/07/14 02:26:54;;;;;;;1999.90;999.90;;;;;;;16.72;100.00;99520.94;5044706;28;20129;-55
2022/07/14 02:29:38;;;;;;;1999.90;999.90;;;;;;;16.73;100.00;99518.19;5044187;28;20083;-55
2022/07/14 02:32:29;;;;;;;1999.90;999.90;;;;;;;16.80;100.00;99532.84;5043011;28;20049;-55
2022/07/14 02:35:13;;;;;;;1999.90;999.90;;;;;;;16.78;100.00;99537.34;5039301;28;20053;-55
2022/07/14 02:37:57;;;;;;;1999.90;999.90;;;;;;;16.76;100.00;99541.00;5039503;28;20115;-55
2022/07/14 02:40:42;;;;;;;1999.90;999.90;;;;;;;16.71;100.00;99543.88;5037983;28;20041;-55
2022/07/14 02:43:28;;;;;;;1999.90;999.90;;;;;;;16.61;100.00;99545.31;5042195;28;20049;-55
2022/07/14 02:46:13;;;;;;;1999.90;999.90;;;;;;;16.49;100.00;99551.25;5043072;28;20053;-55
2022/07/14 02:48:58;;;;;;;1999.90;999.90;;;;;;;16.53;100.00;99545.72;5043781;28;20488;-55
2022/07/14 02:51:44;;;;;;;1999.90;999.90;;;;;;;16.45;100.00;99542.63;5071249;28;20053;-55
2022/07/14 02:54:29;;;;;;;1999.90;999.90;;;;;;;16.44;100.00;99542.69;5060305;28;20034;-55
2022/07/14 02:57:14;;;;;;;1999.90;999.90;;;;;;;16.36;100.00;99551.03;5043144;28;20408;-55
2022/07/14 02:59:59;;;;;;;1999.90;999.90;;;;;;;16.33;100.00;99549.41;5049240;28;20863;-55
2022/07/14 03:02:44;;;;;;;1999.90;999.90;;;;;;;16.08;100.00;99554.25;5047999;28;20053;-55
2022/07/14 03:05:29;;;;;;;1999.90;999.90;;;;;;;16.34;100.00;99551.09;5044486;28;20044;-55
2022/07/14 03:08:14;;;;;;;1999.90;999.90;;;;;;;16.22;100.00;99565.00;5044140;28;20045;-55
2022/07/14 03:10:59;;;;;;;1999.90;999.90;;;;;;;16.33;100.00;99573.19;5047367;28;20057;-55
2022/07/14 03:13:44;;;;;;;1999.90;999.90;;;;;;;16.16;100.00;99565.31;5044524;28;20048;-55
2022/07/14 03:16:30;;;;;;;1999.90;999.90;;;;;;;16.42;100.00;99565.72;5061908;28;20268;-55
2022/07/14 03:19:21;;;;;;;1999.90;999.90;;;;;;;16.63;100.00;99580.44;5048789;28;20692;-55
2022/07/14 03:22:06;;;;;;;1999.90;999.90;;;;;;;16.55;100.00;99565.00;5041645;28;20048;-55
2022/07/14 03:24:53;;;;;;;1999.90;999.90;;;;;;;16.65;100.00;99578.56;5047323;28;20053;-55
2022/07/14 03:27:38;;;;;;;1999.90;999.90;;;;;;;16.73;100.00;99586.09;5047123;28;20052;-55
2022/07/14 03:30:24;;;;;;;1999.90;999.90;;;;;;;16.77;100.00;99587.69;5044982;28;20051;-55
2022/07/14 03:33:09;;;;;;;1999.90;999.90;;;;;;;16.88;100.00;99590.59;5047116;28;20067;-55
2022/07/14 03:35:54;;;;;;;1999.90;999.90;;;;;;;16.93;100.00;99582.38;5041662;28;20045;-55
2022/07/14 03:38:39;;;;;;;1999.90;999.90;;;;;;;16.99;100.00;99576.75;5045870;28;20045;-55
2022/07/14 03:41:26;;;;;;;1999.90;999.90;;;;;;;17.06;100.00;99580.78;5041365;28;20076;-55
2022/07/14 03:44:10;;;;;;;1999.90;999.90;;;;;;;17.11;100.00;99588.47;5050180;28;20659;-55
2022/07/14 03:46:55;;;;;;;1999.90;999.90;;;;;;;17.25;100.00;99599.97;5047338;28;20082;-55
2022/07/14 03:49:40;;;;;;;1999.90;999.90;;;;;;;17.20;100.00;99611.78;5046262;28;20087;-56
2022/07/14 03:52:25;;;;;;;1999.90;999.90;;;;;;;17.27;100.00;99619.28;5048275;28;20171;-55
2022/07/14 03:55:09;;;;;;;1999.90;999.90;;;;;;;17.31;100.00;99619.97;5047777;28;20045;-55
2022/07/14 03:57:53;;;;;;;1999.90;999.90;;;;;;;17.34;100.00;99614.50;5047977;28;20041;-55
2022/07/14 04:00:38;;;;;;;1999.90;999.90;;;;;;;17.36;100.00;99611.78;5049018;28;20049;-55
2022/07/14 04:03:23;;;;;;;1999.90;999.90;;;;;;;17.48;100.00;99616.38;5047860;28;20041;-55
2022/07/14 04:06:09;;;;;;;1999.90;999.90;;;;;;;17.61;100.00;99619.19;5046174;28;20140;-55
2022/07/14 04:08:53;;;;;;;1999.90;999.90;;;;;;;17.81;100.00;99620.72;5043939;28;20049;-55
2022/07/14 04:11:37;;;;;;;1999.90;999.90;;;;;;;17.98;100.00;99620.59;5042950;28;20045;-55
2022/07/14 04:14:23;;;;;;;1999.90;999.90;;;;;;;18.29;100.00;99624.94;5044719;28;20881;-55
2022/07/14 04:17:08;;;;;;;1999.90;999.90;;;;;;;18.65;100.00;99626.28;5042166;28;20115;-55
2022/07/14 04:19:53;;;;;;;1999.90;999.90;;;;;;;18.75;100.00;99622.19;5069964;28;20420;-55
2022/07/14 04:22:38;;;;;;;1999.90;999.90;;;;;;;18.97;100.00;99629.66;5042575;28;20214;-56
2022/07/14 04:25:23;;;;;;;1999.90;999.90;;;;;;;19.10;100.00;99625.28;5045908;28;20098;-55
2022/07/14 04:28:08;;;;;;;1999.90;999.90;;;;;;;19.49;100.00;99636.97;5042005;28;20048;-55
2022/07/14 04:30:52;;;;;;;1999.90;999.90;;;;;;;19.64;100.00;99634.31;5041674;28;20464;-55
2022/07/14 04:33:37;;;;;;;1999.90;999.90;;;;;;;19.80;100.00;99635.00;5044723;28;20069;-55
2022/07/14 04:36:23;;;;;;;1999.90;999.90;;;;;;;19.85;100.00;99643.50;5058847;28;20049;-55
2022/07/14 04:39:08;;;;;;;1999.90;999.90;;;;;;;19.71;100.00;99643.56;5040603;28;20400;-55
2022/07/14 04:41:53;;;;;;;1999.90;999.90;;;;;;;19.76;100.00;99655.63;5044419;28;20086;-56
2022/07/14 04:44:38;;;;;;;1999.90;999.90;;;;;;;19.92;100.00;99646.63;5048262;28;20049;-56
2022/07/14 04:47:23;;;;;;;1999.90;999.90;;;;;;;20.02;100.00;99659.22;5046375;28;20045;-55
2022/07/14 04:53:14;;;;;;;1999.90;999.90;;;;;;;20.30;100.00;99654.69;5045313;28;20118;-55
2022/07/14 04:56:03;;;;;;;1999.90;999.90;;;;;;;20.40;100.00;99661.09;5040796;28;20061;-56
2022/07/14 04:59:17;;;;;;;1999.90;999.90;;;;;;;20.45;100.00;99656.31;5026459;28;20053;-55
2022/07/14 05:02:01;;;;;;;1999.90;999.90;;;;;;;20.28;100.00;99664.59;5039589;28;20048;-57
2022/07/14 05:04:46;;;;;;;1999.90;999.90;;;;;;;20.11;100.00;99667.50;5041178;28;20049;-56
2022/07/14 05:07:31;;;;;;;1999.90;999.90;;;;;;;20.10;100.00;99671.97;5044963;28;20041;-56
2022/07/14 05:10:18;;;;;;;1999.90;999.90;;;;;;;19.96;100.00;99670.25;5041241;28;20703;-55
2022/07/14 05:13:02;;;;;;;1999.90;999.90;;;;;;;20.14;100.00;99680.59;5046231;28;20124;-56
2022/07/14 05:15:47;;;;;;;1999.90;999.90;;;;;;;19.95;100.00;99673.84;5039792;28;20041;-56
2022/07/14 05:18:32;;;;;;;1999.90;999.90;;;;;;;20.10;100.00;99668.47;5045256;28;20056;-56
2022/07/14 05:21:16;;;;;;;1999.90;999.90;;;;;;;20.23;100.00;99674.69;5043925;28;20053;-56
2022/07/14 05:24:01;;;;;;;1999.90;999.90;;;;;;;20.31;100.00;99669.69;5042314;28;20410;-56
2022/07/14 05:26:46;;;;;;;1999.90;999.90;;;;;;;20.25;100.00;99665.66;5043920;28;20059;-56
2022/07/14 05:29:31;;;;;;;1999.90;999.90;;;;;;;20.42;100.00;99676.94;5044192;28;20069;-56
2022/07/14 05:32:16;;;;;;;1999.90;999.90;;;;;;;20.44;100.00;99681.22;5044169;28;20060;-56
2022/07/14 05:35:03;;;;;;;1999.90;999.90;;;;;;;20.30;100.00;99679.47;5046504;28;20155;-56
2022/07/14 05:37:47;;;;;;;1999.90;999.90;;;;;;;20.26;100.00;99682.44;5046235;28;21401;-56
2022/07/14 05:40:32;;;;;;;1999.90;999.90;;;;;;;20.31;100.00;99696.28;5045073;28;20057;-56
2022/07/14 05:43:19;;;;;;;1999.90;999.90;;;;;;;20.16;100.00;99710.59;5047919;28;20045;-55
2022/07/14 05:46:06;;;;;;;1999.90;999.90;;;;;;;19.98;100.00;99713.50;5048181;28;20045;-55
2022/07/14 05:48:51;;;;;;;1999.90;999.90;;;;;;;20.13;100.00;99711.66;5048104;28;20045;-56
2022/07/14 05:51:36;;;;;;;1999.90;999.90;;;;;;;20.14;100.00;99704.53;5041158;28;20088;-55
2022/07/14 05:54:21;;;;;;;1999.90;999.90;;;;;;;20.25;100.00;99713.50;5042991;28;20053;-56
2022/07/14 05:57:09;;;;;;;1999.90;999.90;;;;;;;20.48;100.00;99709.31;5041511;28;20131;-56
2022/07/14 05:59:53;;;;;;;1999.90;999.90;;;;;;;20.35;100.00;99708.44;5040471;28;20057;-56
2022/07/14 06:02:38;;;;;;;1999.90;999.90;;;;;;;20.49;100.00;99703.03;5042091;28;20140;-55
2022/07/14 06:05:23;;;;;;;1999.90;999.90;;;;;;;20.47;100.00;99693.44;5041082;28;20365;-56
2022/07/14 06:08:08;;;;;;;1999.90;999.90;;;;;;;20.47;100.00;99701.41;5041598;28;20053;-56
2022/07/14 06:10:55;;;;;;;1999.90;999.90;;;;;;;20.92;100.00;99708.09;5046853;28;20041;-56
2022/07/14 06:13:41;;;;;;;1999.90;999.90;;;;;;;21.93;100.00;99705.34;5076483;28;20045;-56
2022/07/14 06:16:27;;;;;;;1999.90;999.90;;;;;;;21.82;100.00;99706.16;5043536;28;20049;-56
2022/07/14 06:19:12;;;;;;;1999.90;999.90;;;;;;;21.56;100.00;99710.72;5048224;28;20501;-56
2022/07/14 06:21:58;;;;;;;1999.90;999.90;;;;;;;22.27;100.00;99717.06;5050796;28;20041;-56
2022/07/14 06:24:42;;;;;;;1999.90;999.90;;;;;;;21.88;100.00;99716.38;5052389;28;20040;-56
2022/07/14 06:27:27;;;;;;;1999.90;999.90;;;;;;;21.63;100.00;99727.09;5066431;28;20045;-56
2022/07/14 06:30:12;;;;;;;1999.90;999.90;;;;;;;21.49;100.00;99721.94;5050616;28;20045;-56
2022/07/14 06:32:59;;;;;;;1999.90;999.90;;;;;;;21.59;100.00;99718.47;5051842;28;20479;-56
2022/07/14 06:35:44;;;;;;;1999.90;999.90;;;;;;;21.64;100.00;99724.34;5050553;28;20115;-56
2022/07/14 06:38:28;;;;;;;1999.90;999.90;;;;;;;21.71;100.00;99703.44;5051032;28;20037;-57
2022/07/14 06:41:13;;;;;;;1999.90;999.90;;;;;;;21.92;100.00;99717.84;5049421;28;20079;-56
2022/07/14 06:44:04;;;;;;;1999.90;999.90;;;;;;;21.76;100.00;99711.06;5052180;28;20098;-56
2022/07/14 06:46:54;;;;;;;1999.90;999.90;;;;;;;21.84;100.00;99719.34;5051787;28;20171;-56
2022/07/14 06:49:38;;;;;;;1999.90;999.90;;;;;;;22.10;100.00;99720.97;5050378;28;20486;-56
2022/07/14 06:52:24;;;;;;;1999.90;999.90;;;;;;;22.13;100.00;99726.06;5051665;28;20483;-56
2022/07/14 06:55:09;;;;;;;1999.90;999.90;;;;;;;21.86;100.00;99717.44;5050912;28;20110;-57
2022/07/14 06:57:54;;;;;;;1999.90;999.90;;;;;;;21.81;100.00;99722.28;5051080;28;20143;-57
2022/07/14 07:00:39;;;;;;;1999.90;999.90;;;;;;;21.63;98.15;99725.28;5051610;28;20053;-56
2022/07/14 07:03:23;;;;;;;1999.90;999.90;;;;;;;22.06;96.18;99723.97;5051091;28;20132;-56
2022/07/14 07:09:16;;;;;;;1999.90;999.90;;;;;;;22.28;97.22;99726.78;5048106;28;20048;-56
2022/07/14 07:12:00;;;;;;;1999.90;999.90;;;;;;;22.18;96.60;99731.09;5051646;28;20388;-56
2022/07/14 07:14:45;;;;;;;1999.90;999.90;;;;;;;22.01;97.95;99718.97;5050529;28;20037;-56
2022/07/14 07:17:29;;;;;;;1999.90;999.90;;;;;;;21.99;98.80;99728.91;5050518;28;20356;-56
2022/07/14 07:20:14;;;;;;;1999.90;999.90;;;;;;;22.02;98.39;99726.00;5046865;28;20048;-56
2022/07/14 07:22:59;;;;;;;1999.90;999.90;;;;;;;22.03;95.48;99727.69;5045638;28;20045;-56
2022/07/14 07:25:43;;;;;;;1999.90;999.90;;;;;;;22.56;94.44;99722.03;5045239;28;20068;-55
2022/07/14 07:28:28;;;;;;;1999.90;999.90;;;;;;;22.78;94.72;99718.53;5046488;28;20404;-57
2022/07/14 07:31:13;;;;;;;1999.90;999.90;;;;;;;22.90;93.69;99722.09;5042122;28;20037;-56
2022/07/14 07:33:59;;;;;;;1999.90;999.90;;;;;;;24.16;88.74;99715.59;5044451;28;20631;-57
2022/07/14 07:36:43;;;;;;;1999.90;999.90;;;;;;;23.79;84.83;99719.47;5043446;28;20171;-56
2022/07/14 07:39:28;;;;;;;1999.90;999.90;;;;;;;24.16;85.30;99718.28;5043008;28;20419;-56
2022/07/14 07:42:12;;;;;;;1999.90;999.90;;;;;;;24.26;83.40;99720.03;5045412;28;20068;-56
2022/07/14 07:44:57;;;;;;;1999.90;999.90;;;;;;;24.58;84.08;99713.00;5045539;28;20060;-56
2022/07/14 07:47:41;;;;;;;1999.90;999.90;;;;;;;24.54;81.84;99706.22;5045902;28;20045;-57
2022/07/14 07:50:26;;;;;;;1999.90;999.90;;;;;;;25.04;78.84;99709.91;5044738;28;20053;-57
2022/07/14 07:53:11;;;;;;;1999.90;999.90;;;;;;;26.16;79.88;99708.03;5050744;28;20033;-57
2022/07/14 07:55:56;;;;;;;1999.90;999.90;;;;;;;25.95;75.32;99699.25;5046939;28;20048;-57
2022/07/14 07:58:40;;;;;;;1999.90;999.90;;;;;;;25.63;75.02;99705.63;5050869;28;20499;-56
2022/07/14 08:01:24;;;;;;;1999.90;999.90;;;;;;;25.80;76.92;99699.63;5046501;28;20044;-57
2022/07/14 08:04:09;;;;;;;1999.90;999.90;;;;;;;26.17;77.18;99704.34;5048862;28;20128;-56
2022/07/14 08:06:53;;;;;;;1999.90;999.90;;;;;;;26.46;74.11;99696.28;5047921;28;20376;-57
2022/07/14 08:09:37;;;;;;;1999.90;999.90;;;;;;;26.88;73.52;99690.59;5051048;28;20542;-57
2022/07/14 08:12:22;;;;;;;1999.90;999.90;;;;;;;26.38;73.15;99693.44;5048584;28;20057;-56
2022/07/14 08:15:07;;;;;;;1999.90;999.90;;;;;;;26.71;73.19;99694.00;5048225;28;20076;-57
2022/07/14 08:17:51;;;;;;;1999.90;999.90;;;;;;;27.44;74.34;99688.84;5047229;28;20049;-56
2022/07/14 08:20:36;;;;;;;1999.90;999.90;;;;;;;26.19;72.65;99694.31;5047111;28;20049;-57
2022/07/14 08:23:21;;;;;;;1999.90;999.90;;;;;;;25.93;74.61;99690.47;5048100;28;20038;-57
2022/07/14 08:26:05;;;;;;;1999.90;999.90;;;;;;;26.11;76.02;99686.13;5051288;28;20041;-57
2022/07/14 08:28:49;;;;;;;1999.90;999.90;;;;;;;26.18;77.00;99703.34;5047729;28;20041;-57
2022/07/14 08:31:33;;;;;;;1999.90;999.90;;;;;;;26.53;72.92;99702.81;5045281;28;20143;-57
2022/07/14 08:34:18;;;;;;;1999.90;999.90;;;;;;;25.77;74.16;99694.53;5049696;28;20385;-56
2022/07/14 08:37:03;;;;;;;1999.90;999.90;;;;;;;26.24;75.62;99693.91;5048650;28;20479;-57
2022/07/14 08:39:48;;;;;;;1999.90;999.90;;;;;;;26.31;74.99;99687.81;5050062;28;20041;-57
2022/07/14 08:42:32;;;;;;;1999.90;999.90;;;;;;;25.87;76.32;99687.38;5045784;28;20045;-57
2022/07/14 08:45:20;;;;;;;1999.90;999.90;;;;;;;26.44;73.05;99690.19;5047510;28;20646;-57
2022/07/14 08:48:05;;;;;;;1999.90;999.90;;;;;;;26.92;76.75;99685.78;5047396;28;20059;-57
2022/07/14 08:50:49;;;;;;;1999.90;999.90;;;;;;;26.67;77.27;99682.72;5047393;28;20045;-57
2022/07/14 08:53:36;;;;;;;1999.90;999.90;;;;;;;27.23;72.68;99676.50;5048578;28;20057;-57
2022/07/14 08:56:21;;;;;;;1999.90;999.90;;;;;;;26.90;73.61;99690.44;5045451;28;20041;-57
2022/07/14 08:59:05;;;;;;;1999.90;999.90;;;;;;;26.33;72.79;99687.69;5049189;28;20083;-57
2022/07/14 09:01:50;;;;;;;1999.90;999.90;;;;;;;26.60;76.34;99680.75;5045399;28;20037;-57
2022/07/14 09:04:35;;;;;;;1999.90;999.90;;;;;;;27.44;74.46;99683.47;5048253;28;20053;-57
2022/07/14 09:07:34;;;;;;;1999.90;999.90;;;;;;;27.77;75.63;99675.78;5046980;28;20048;-57
2022/07/14 09:10:24;;;;;;;1999.90;999.90;;;;;;;27.23;70.11;99665.75;5044839;28;20033;-58
2022/07/14 09:13:13;;;;;;;1999.90;999.90;;;;;;;27.94;68.45;99665.03;5048448;28;20049;-57
2022/07/14 09:16:17;;;;;;;1999.90;999.90;;;;;;;26.86;70.86;99668.38;5047802;28;20116;-58
2022/07/14 09:19:08;;;;;;;1999.90;999.90;;;;;;;26.99;73.19;99668.91;5046200;28;20045;-57
2022/07/14 09:21:55;;;;;;;1999.90;999.90;;;;;;;26.32;76.71;99667.19;5042392;28;20076;-57
2022/07/14 09:24:40;;;;;;;1999.90;999.90;;;;;;;26.15;75.84;99663.38;5042834;28;20057;-57
2022/07/14 09:27:25;;;;;;;1999.90;999.90;;;;;;;25.58;76.45;99665.84;5040552;28;20049;-57
2022/07/14 09:30:11;;;;;;;1999.90;999.90;;;;;;;26.32;77.18;99665.38;5044908;28;20053;-57
2022/07/14 09:33:04;;;;;;;1999.90;999.90;;;;;;;25.49;74.61;99682.75;5042044;28;20049;-57
2022/07/14 09:35:49;;;;;;;1999.90;999.90;;;;;;;25.20;72.07;99674.59;5039570;28;20044;-57
2022/07/14 09:38:45;;;;;;;1999.90;999.90;;;;;;;25.44;75.37;99678.78;5042143;28;20547;-56
2022/07/14 09:41:35;;;;;;;1999.90;999.90;;;;;;;25.33;77.15;99671.69;5047085;28;20045;-56
2022/07/14 09:44:21;;;;;;;1999.90;999.90;;;;;;;25.56;75.33;99675.84;5049134;28;20045;-56
2022/07/14 09:47:05;;;;;;;1999.90;999.90;;;;;;;25.67;75.90;99672.19;5047432;28;20041;-56
2022/07/14 09:49:49;;;;;;;1999.90;999.90;;;;;;;25.36;77.37;99671.44;5047264;28;20486;-57
2022/07/14 09:52:35;;;;;;;1999.90;999.90;;;;;;;24.91;77.89;99669.94;5046884;28;20396;-56
2022/07/14 09:55:22;;;;;;;1999.90;999.90;;;;;;;25.33;78.81;99671.69;5047780;28;20655;-56
2022/07/14 09:58:07;;;;;;;1999.90;999.90;;;;;;;25.32;75.49;99664.66;5049888;28;20041;-56
2022/07/14 10:00:57;;;;;;;1999.90;999.90;;;;;;;24.91;78.16;99651.19;5049243;28;20056;-56
2022/07/14 10:03:45;;;;;;;1999.90;999.90;;;;;;;24.89;78.49;99660.31;5051872;28;20851;-56
2022/07/14 10:06:30;;;;;;;1999.90;999.90;;;;;;;24.45;77.46;99654.31;5051584;28;20086;-56
2022/07/14 10:09:15;;;;;;;1999.90;999.90;;;;;;;25.42;79.58;99662.84;5050736;28;20049;-56
2022/07/14 10:12:01;;;;;;;1999.90;999.90;;;;;;;25.26;78.28;99660.66;5049879;28;20057;-56
2022/07/14 10:14:48;;;;;;;1999.90;999.90;;;;;;;25.20;80.17;99671.09;5047967;28;20049;-55
2022/07/14 10:17:37;;;;;;;1999.90;999.90;;;;;;;25.21;79.66;99667.41;5045328;28;20154;-56
2022/07/14 10:20:23;;;;;;;1999.90;999.90;;;;;;;25.76;76.11;99654.44;5047640;28;20476;-55
2022/07/14 10:23:08;;;;;;;1999.90;999.90;;;;;;;26.91;75.43;99655.38;5045617;28;20056;-57
2022/07/14 10:25:55;;;;;;;1999.90;999.90;;;;;;;27.78;71.23;99640.66;5046345;28;20037;-56
2022/07/14 10:28:41;;;;;;;1999.90;999.90;;;;;;;26.80;72.88;99644.78;5047191;28;20044;-56
2022/07/14 10:31:36;;;;;;;1999.90;999.90;;;;;;;28.51;63.79;99640.47;5048350;28;20079;-56
2022/07/14 10:34:41;;;;;;;1999.90;999.90;;;;;;;28.51;68.84;99639.66;5062884;28;20420;-56
2022/07/14 10:37:25;;;;;;;1999.90;999.90;;;;;;;26.79;70.72;99637.72;5045200;28;20045;-57
2022/07/14 10:40:20;;;;;;;1999.90;999.90;;;;;;;27.28;70.39;99635.72;5045392;28;20049;-56
2022/07/14 10:43:22;;;;;;;1999.90;999.90;;;;;;;29.01;65.68;99636.25;5049802;28;20107;-57
2022/07/14 10:46:07;;;;;;;1999.90;999.90;;;;;;;29.09;64.35;99639.84;5045418;28;20139;-57
2022/07/14 10:48:51;;;;;;;1999.90;999.90;;;;;;;29.30;62.85;99631.31;5045610;28;20041;-56
2022/07/14 10:51:49;;;;;;;1999.90;999.90;;;;;;;29.97;65.73;99636.75;5045484;28;20053;-56
2022/07/14 10:54:34;;;;;;;1999.90;999.90;;;;;;;29.73;62.04;99632.13;5045913;28;20421;-57
2022/07/14 10:57:18;;;;;;;1999.90;999.90;;;;;;;28.80;59.49;99629.38;5045586;28;20076;-57
2022/07/14 11:00:04;;;;;;;1999.90;999.90;;;;;;;28.05;59.46;99630.84;5045743;28;20053;-58
2022/07/14 11:02:49;;;;;;;1999.90;999.90;;;;;;;27.71;64.74;99631.47;5045618;28;20048;-57
2022/07/14 11:06:03;;;;;;;1999.90;999.90;;;;;;;27.16;67.38;99634.22;5044358;28;20103;-57
2022/07/14 11:09:22;;;;;;;1999.90;999.90;;;;;;;26.66;65.98;99630.00;5044580;28;20052;-57
2022/07/14 11:12:12;;;;;;;1999.90;999.90;;;;;;;26.21;69.84;99627.91;5043905;28;20049;-57
2022/07/14 11:14:57;;;;;;;1999.90;999.90;;;;;;;26.48;70.10;99624.50;5045422;28;20042;-56
2022/07/14 11:17:42;;;;;;;1999.90;999.90;;;;;;;25.85;69.75;99624.13;5044783;28;20042;-56
2022/07/14 11:20:50;;;;;;;1999.90;999.90;;;;;;;26.03;70.37;99622.44;5046145;28;20041;-56
2022/07/14 11:23:36;;;;;;;1999.90;999.90;;;;;;;25.90;72.06;99627.22;5044117;28;20042;-57
2022/07/14 11:26:41;;;;;;;1999.90;999.90;;;;;;;25.94;73.25;99617.91;5044863;28;20120;-56
2022/07/14 11:29:32;;;;;;;1999.90;999.90;;;;;;;26.51;70.59;99626.06;5043674;28;20726;-55
2022/07/14 11:32:33;;;;;;;1999.90;999.90;;;;;;;25.94;72.81;99625.13;5044106;28;20057;-56
2022/07/14 11:38:27;;;;;;;1999.90;999.90;;;;;;;25.86;69.44;99631.19;5044551;28;20044;-56
2022/07/14 11:41:15;;;;;;;1999.90;999.90;;;;;;;26.62;70.09;99625.91;5046437;28;20045;-56
2022/07/14 11:43:59;;;;;;;1999.90;999.90;;;;;;;27.45;69.64;99621.44;5047777;28;20111;-57
2022/07/14 11:46:57;;;;;;;1999.90;999.90;;;;;;;27.81;66.01;99605.38;5048222;28;20041;-57
2022/07/14 11:49:51;;;;;;;1999.90;999.90;;;;;;;27.34;69.94;99608.22;5048494;28;20053;-57
2022/07/14 11:52:40;;;;;;;1999.90;999.90;;;;;;;28.09;63.30;99589.97;5050556;28;20373;-56
2022/07/14 11:55:26;;;;;;;1999.90;999.90;;;;;;;25.99;70.41;99596.88;5048585;28;20480;-57
2022/07/14 11:58:13;;;;;;;1999.90;999.90;;;;;;;26.63;69.01;99594.53;5049138;28;20050;-57
2022/07/14 12:01:00;;;;;;;1999.90;999.90;;;;;;;27.46;65.97;99598.97;5049633;28;20045;-57
2022/07/14 12:03:47;;;;;;;1999.90;999.90;;;;;;;28.02;68.66;99593.47;5049765;28;20049;-55
2022/07/14 12:06:32;;;;;;;1999.90;999.90;;;;;;;28.05;68.36;99575.16;5048508;28;20044;-57
2022/07/14 12:09:28;;;;;;;1999.90;999.90;;;;;;;28.93;64.98;99583.13;5050176;28;20041;-57
2022/07/14 12:12:14;;;;;;;1999.90;999.90;;;;;;;27.75;67.75;99576.38;5048681;28;20494;-58
2022/07/14 12:14:58;;;;;;;1999.90;999.90;;;;;;;27.79;65.26;99579.63;5048239;28;20071;-57
2022/07/14 12:17:52;;;;;;;1999.90;999.90;;;;;;;27.18;66.36;99571.25;5046080;28;20041;-58
2022/07/14 12:20:46;;;;;;;1999.90;999.90;;;;;;;26.74;68.98;99562.94;5034920;28;20052;-55
2022/07/14 12:23:30;;;;;;;1999.90;999.90;;;;;;;27.30;66.14;99565.66;5048037;28;20045;-56
2022/07/14 12:26:18;;;;;;;1999.90;999.90;;;;;;;27.22;67.45;99566.41;5046350;28;20044;-56
2022/07/14 12:29:04;;;;;;;1999.90;999.90;;;;;;;26.02;68.53;99563.53;5046923;28;20060;-57